sensor_id;sensor_type;location;lat;lon;timestamp;P1;durP1;ratioP1;P2;durP2;ratioP2
3278;SDS011;1651;50.940;6.888;2022-11-15T00:02:07;10.17;;;7.40;;
3278;SDS011;1651;50.940;6.888;2022-11-15T00:04:33;11.23;;;7.47;;
3278;SDS011;1651;50.940;6.888;2022-11-15T00:06:59;11.80;;;7.67;;
3278;SDS011;1651;50.940;6.888;2022-11-15T00:09:25;7.90;;;6.87;;
3278;SDS011;1651;50.940;6.888;2022-11-15T00:11:51;13.10;;;6.80;;
3278;SDS011;1651;50.940;6.888;2022-11-15T00:14:17;10.73;;;7.13;;
3278;SDS011;1651;50.940;6.888;2022-11-15T00:16:43;8.50;;;6.53;;
3278;SDS011;1651;50.940;6.888;2022-11-15T00:19:09;9.70;;;6.70;;
3278;SDS011;1651;50.940;6.888;2022-11-15T00:21:35;7.70;;;6.90;;
3278;SDS011;1651;50.940;6.888;2022-11-15T00:24:01;9.03;;;7.03;;
3278;SDS011;1651;50.940;6.888;2022-11-15T00:26:27;11.90;;;6.30;;
3278;SDS011;1651;50.940;6.888;2022-11-15T00:28:53;12.80;;;8.23;;
3278;SDS011;1651;50.940;6.888;2022-11-15T00:31:19;10.07;;;7.73;;
3278;SDS011;1651;50.940;6.888;2022-11-15T00:33:45;10.90;;;8.20;;
3278;SDS011;1651;50.940;6.888;2022-11-15T00:36:11;11.07;;;7.03;;
3278;SDS011;1651;50.940;6.888;2022-11-15T00:38:39;11.40;;;6.63;;
3278;SDS011;1651;50.940;6.888;2022-11-15T00:41:05;10.17;;;7.50;;
3278;SDS011;1651;50.940;6.888;2022-11-15T00:43:32;13.50;;;7.33;;
3278;SDS011;1651;50.940;6.888;2022-11-15T00:45:59;11.57;;;7.43;;
3278;SDS011;1651;50.940;6.888;2022-11-15T00:48:25;8.73;;;7.40;;
3278;SDS011;1651;50.940;6.888;2022-11-15T00:50:51;10.30;;;6.80;;
3278;SDS011;1651;50.940;6.888;2022-11-15T00:53:17;12.27;;;5.40;;
3278;SDS011;1651;50.940;6.888;2022-11-15T00:55:43;8.60;;;7.27;;
3278;SDS011;1651;50.940;6.888;2022-11-15T00:58:09;9.23;;;6.63;;
3278;SDS011;1651;50.940;6.888;2022-11-15T01:00:35;8.10;;;7.20;;
3278;SDS011;1651;50.940;6.888;2022-11-15T01:03:01;12.57;;;7.63;;
3278;SDS011;1651;50.940;6.888;2022-11-15T01:05:27;9.13;;;7.03;;
3278;SDS011;1651;50.940;6.888;2022-11-15T01:07:53;9.60;;;6.80;;
3278;SDS011;1651;50.940;6.888;2022-11-15T01:10:21;11.30;;;6.77;;
3278;SDS011;1651;50.940;6.888;2022-11-15T01:12:49;11.80;;;6.70;;
3278;SDS011;1651;50.940;6.888;2022-11-15T01:15:17;8.00;;;6.80;;
3278;SDS011;1651;50.940;6.888;2022-11-15T01:17:43;7.90;;;6.43;;
3278;SDS011;1651;50.940;6.888;2022-11-15T01:20:09;10.27;;;6.53;;
3278;SDS011;1651;50.940;6.888;2022-11-15T01:22:36;9.97;;;6.83;;
3278;SDS011;1651;50.940;6.888;2022-11-15T01:25:02;8.70;;;6.77;;
3278;SDS011;1651;50.940;6.888;2022-11-15T01:27:29;15.07;;;7.17;;
3278;SDS011;1651;50.940;6.888;2022-11-15T01:29:55;7.50;;;6.80;;
3278;SDS011;1651;50.940;6.888;2022-11-15T01:32:20;9.90;;;7.60;;
3278;SDS011;1651;50.940;6.888;2022-11-15T01:34:46;10.80;;;7.90;;
3278;SDS011;1651;50.940;6.888;2022-11-15T01:37:12;9.83;;;7.43;;
3278;SDS011;1651;50.940;6.888;2022-11-15T01:39:38;9.30;;;7.37;;
3278;SDS011;1651;50.940;6.888;2022-11-15T01:42:04;11.67;;;7.57;;
3278;SDS011;1651;50.940;6.888;2022-11-15T01:46:57;7.97;;;7.13;;
3278;SDS011;1651;50.940;6.888;2022-11-15T01:49:24;7.90;;;6.80;;
3278;SDS011;1651;50.940;6.888;2022-11-15T01:51:51;10.50;;;7.23;;
3278;SDS011;1651;50.940;6.888;2022-11-15T01:54:18;8.63;;;6.90;;
3278;SDS011;1651;50.940;6.888;2022-11-15T01:56:46;7.90;;;7.10;;
3278;SDS011;1651;50.940;6.888;2022-11-15T01:59:12;8.17;;;7.10;;
3278;SDS011;1651;50.940;6.888;2022-11-15T02:01:39;9.33;;;7.07;;
3278;SDS011;1651;50.940;6.888;2022-11-15T02:06:40;9.30;;;6.97;;
3278;SDS011;1651;50.940;6.888;2022-11-15T02:09:06;11.13;;;6.67;;
3278;SDS011;1651;50.940;6.888;2022-11-15T02:11:32;7.97;;;7.00;;
3278;SDS011;1651;50.940;6.888;2022-11-15T02:13:59;9.47;;;7.00;;
3278;SDS011;1651;50.940;6.888;2022-11-15T02:18:56;9.73;;;6.53;;
3278;SDS011;1651;50.940;6.888;2022-11-15T02:29:10;8.43;;;5.60;;
3278;SDS011;1651;50.940;6.888;2022-11-15T02:31:46;9.67;;;7.10;;
3278;SDS011;1651;50.940;6.888;2022-11-15T02:42:04;15.47;;;7.10;;
3278;SDS011;1651;50.940;6.888;2022-11-15T02:44:51;16.57;;;7.70;;
3278;SDS011;1651;50.940;6.888;2022-11-15T02:47:18;10.03;;;6.30;;
3278;SDS011;1651;50.940;6.888;2022-11-15T02:49:52;9.67;;;7.70;;
3278;SDS011;1651;50.940;6.888;2022-11-15T02:52:20;9.30;;;6.23;;
3278;SDS011;1651;50.940;6.888;2022-11-15T03:00:34;8.90;;;7.13;;
3278;SDS011;1651;50.940;6.888;2022-11-15T03:08:16;8.77;;;7.47;;
3278;SDS011;1651;50.940;6.888;2022-11-15T03:13:51;8.50;;;7.60;;
3278;SDS011;1651;50.940;6.888;2022-11-15T03:18:50;7.67;;;6.83;;
3278;SDS011;1651;50.940;6.888;2022-11-15T03:21:18;9.33;;;6.80;;
3278;SDS011;1651;50.940;6.888;2022-11-15T03:23:45;7.30;;;6.23;;
3278;SDS011;1651;50.940;6.888;2022-11-15T03:26:14;9.57;;;7.77;;
3278;SDS011;1651;50.940;6.888;2022-11-15T03:28:42;7.67;;;6.10;;
3278;SDS011;1651;50.940;6.888;2022-11-15T03:31:10;8.33;;;6.50;;
3278;SDS011;1651;50.940;6.888;2022-11-15T03:33:56;11.03;;;6.57;;
3278;SDS011;1651;50.940;6.888;2022-11-15T03:36:23;5.17;;;4.37;;
3278;SDS011;1651;50.940;6.888;2022-11-15T03:38:52;8.83;;;6.33;;
3278;SDS011;1651;50.940;6.888;2022-11-15T03:41:24;6.50;;;5.80;;
3278;SDS011;1651;50.940;6.888;2022-11-15T03:43:55;7.87;;;5.93;;
3278;SDS011;1651;50.940;6.888;2022-11-15T03:46:27;7.33;;;4.40;;
3278;SDS011;1651;50.940;6.888;2022-11-15T03:48:57;7.23;;;5.87;;
3278;SDS011;1651;50.940;6.888;2022-11-15T03:51:24;7.53;;;5.90;;
3278;SDS011;1651;50.940;6.888;2022-11-15T03:53:50;7.40;;;5.30;;
3278;SDS011;1651;50.940;6.888;2022-11-15T03:56:16;6.53;;;5.13;;
3278;SDS011;1651;50.940;6.888;2022-11-15T03:58:43;9.27;;;5.83;;
3278;SDS011;1651;50.940;6.888;2022-11-15T04:01:09;9.17;;;4.93;;
3278;SDS011;1651;50.940;6.888;2022-11-15T04:03:35;8.00;;;5.97;;
3278;SDS011;1651;50.940;6.888;2022-11-15T04:06:01;5.97;;;5.37;;
3278;SDS011;1651;50.940;6.888;2022-11-15T04:08:27;7.53;;;5.57;;
3278;SDS011;1651;50.940;6.888;2022-11-15T04:10:53;6.83;;;5.70;;
3278;SDS011;1651;50.940;6.888;2022-11-15T04:13:19;4.97;;;3.27;;
3278;SDS011;1651;50.940;6.888;2022-11-15T04:15:45;7.90;;;6.30;;
3278;SDS011;1651;50.940;6.888;2022-11-15T04:18:12;8.63;;;5.57;;
3278;SDS011;1651;50.940;6.888;2022-11-15T04:20:39;6.57;;;5.40;;
3278;SDS011;1651;50.940;6.888;2022-11-15T04:23:24;5.07;;;4.20;;
3278;SDS011;1651;50.940;6.888;2022-11-15T04:26:16;8.63;;;6.00;;
3278;SDS011;1651;50.940;6.888;2022-11-15T04:28:42;6.70;;;5.30;;
3278;SDS011;1651;50.940;6.888;2022-11-15T04:31:27;7.30;;;5.37;;
3278;SDS011;1651;50.940;6.888;2022-11-15T04:33:53;6.40;;;5.50;;
3278;SDS011;1651;50.940;6.888;2022-11-15T04:36:20;7.47;;;6.20;;
3278;SDS011;1651;50.940;6.888;2022-11-15T04:39:05;7.20;;;5.30;;
3278;SDS011;1651;50.940;6.888;2022-11-15T04:41:31;7.07;;;5.43;;
3278;SDS011;1651;50.940;6.888;2022-11-15T04:43:57;6.40;;;5.70;;
3278;SDS011;1651;50.940;6.888;2022-11-15T04:46:23;8.17;;;5.90;;
3278;SDS011;1651;50.940;6.888;2022-11-15T04:48:49;7.07;;;6.10;;
3278;SDS011;1651;50.940;6.888;2022-11-15T04:51:16;6.73;;;5.87;;
3278;SDS011;1651;50.940;6.888;2022-11-15T04:53:42;7.60;;;6.70;;
3278;SDS011;1651;50.940;6.888;2022-11-15T04:56:08;6.93;;;6.07;;
3278;SDS011;1651;50.940;6.888;2022-11-15T04:58:34;6.23;;;5.60;;
3278;SDS011;1651;50.940;6.888;2022-11-15T05:01:10;6.90;;;6.00;;
3278;SDS011;1651;50.940;6.888;2022-11-15T05:03:37;10.67;;;6.27;;
3278;SDS011;1651;50.940;6.888;2022-11-15T05:06:21;7.10;;;5.83;;
3278;SDS011;1651;50.940;6.888;2022-11-15T05:08:47;6.20;;;5.50;;
3278;SDS011;1651;50.940;6.888;2022-11-15T05:11:13;7.10;;;6.07;;
3278;SDS011;1651;50.940;6.888;2022-11-15T05:13:39;5.70;;;5.10;;
3278;SDS011;1651;50.940;6.888;2022-11-15T05:16:06;7.00;;;6.27;;
3278;SDS011;1651;50.940;6.888;2022-11-15T05:18:32;6.23;;;5.63;;
3278;SDS011;1651;50.940;6.888;2022-11-15T05:21:06;6.33;;;5.77;;
3278;SDS011;1651;50.940;6.888;2022-11-15T05:23:32;8.47;;;6.13;;
3278;SDS011;1651;50.940;6.888;2022-11-15T05:26:02;7.10;;;5.53;;
3278;SDS011;1651;50.940;6.888;2022-11-15T05:28:29;6.63;;;5.40;;
3278;SDS011;1651;50.940;6.888;2022-11-15T05:31:01;7.63;;;5.93;;
3278;SDS011;1651;50.940;6.888;2022-11-15T05:33:27;7.60;;;5.93;;
3278;SDS011;1651;50.940;6.888;2022-11-15T05:36:54;6.90;;;5.60;;
3278;SDS011;1651;50.940;6.888;2022-11-15T05:38:49;6.37;;;5.13;;
3278;SDS011;1651;50.940;6.888;2022-11-15T05:41:16;6.57;;;4.90;;
3278;SDS011;1651;50.940;6.888;2022-11-15T05:43:44;6.57;;;4.93;;
3278;SDS011;1651;50.940;6.888;2022-11-15T05:46:12;5.73;;;4.87;;
3278;SDS011;1651;50.940;6.888;2022-11-15T05:48:39;6.47;;;5.03;;
3278;SDS011;1651;50.940;6.888;2022-11-15T05:51:06;5.57;;;4.90;;
3278;SDS011;1651;50.940;6.888;2022-11-15T05:53:32;8.90;;;4.83;;
3278;SDS011;1651;50.940;6.888;2022-11-15T05:55:58;4.73;;;4.00;;
3278;SDS011;1651;50.940;6.888;2022-11-15T05:58:25;5.70;;;4.20;;
3278;SDS011;1651;50.940;6.888;2022-11-15T06:00:51;8.30;;;4.70;;
3278;SDS011;1651;50.940;6.888;2022-11-15T06:03:17;6.80;;;4.87;;
3278;SDS011;1651;50.940;6.888;2022-11-15T06:05:43;4.63;;;3.60;;
3278;SDS011;1651;50.940;6.888;2022-11-15T06:08:09;6.40;;;5.67;;
3278;SDS011;1651;50.940;6.888;2022-11-15T06:10:35;7.37;;;4.23;;
3278;SDS011;1651;50.940;6.888;2022-11-15T06:13:02;7.17;;;4.30;;
3278;SDS011;1651;50.940;6.888;2022-11-15T06:15:28;6.20;;;4.90;;
3278;SDS011;1651;50.940;6.888;2022-11-15T06:17:57;5.50;;;5.00;;
3278;SDS011;1651;50.940;6.888;2022-11-15T06:20:25;7.00;;;5.30;;
3278;SDS011;1651;50.940;6.888;2022-11-15T06:22:55;4.97;;;4.37;;
3278;SDS011;1651;50.940;6.888;2022-11-15T06:25:21;6.93;;;4.50;;
3278;SDS011;1651;50.940;6.888;2022-11-15T06:27:52;4.90;;;4.03;;
3278;SDS011;1651;50.940;6.888;2022-11-15T06:30:19;6.67;;;5.10;;
3278;SDS011;1651;50.940;6.888;2022-11-15T06:32:45;5.10;;;4.10;;
3278;SDS011;1651;50.940;6.888;2022-11-15T06:35:12;5.30;;;4.07;;
3278;SDS011;1651;50.940;6.888;2022-11-15T06:37:38;3.93;;;3.43;;
3278;SDS011;1651;50.940;6.888;2022-11-15T06:40:04;8.23;;;4.00;;
3278;SDS011;1651;50.940;6.888;2022-11-15T06:42:32;3.63;;;3.03;;
3278;SDS011;1651;50.940;6.888;2022-11-15T06:45:00;4.47;;;3.50;;
3278;SDS011;1651;50.940;6.888;2022-11-15T06:47:27;4.63;;;3.50;;
3278;SDS011;1651;50.940;6.888;2022-11-15T06:49:54;4.27;;;3.20;;
3278;SDS011;1651;50.940;6.888;2022-11-15T06:52:20;3.40;;;3.10;;
3278;SDS011;1651;50.940;6.888;2022-11-15T06:54:47;4.37;;;2.70;;
3278;SDS011;1651;50.940;6.888;2022-11-15T06:57:13;4.13;;;2.90;;
3278;SDS011;1651;50.940;6.888;2022-11-15T06:59:39;2.93;;;2.60;;
3278;SDS011;1651;50.940;6.888;2022-11-15T07:02:05;3.23;;;2.73;;
3278;SDS011;1651;50.940;6.888;2022-11-15T07:04:31;4.30;;;3.00;;
3278;SDS011;1651;50.940;6.888;2022-11-15T07:06:57;3.40;;;2.90;;
3278;SDS011;1651;50.940;6.888;2022-11-15T07:09:23;3.10;;;2.67;;
3278;SDS011;1651;50.940;6.888;2022-11-15T07:11:49;2.90;;;2.30;;
3278;SDS011;1651;50.940;6.888;2022-11-15T07:14:15;5.87;;;2.80;;
3278;SDS011;1651;50.940;6.888;2022-11-15T07:16:41;3.03;;;2.73;;
3278;SDS011;1651;50.940;6.888;2022-11-15T07:19:08;2.90;;;2.40;;
3278;SDS011;1651;50.940;6.888;2022-11-15T07:21:34;2.53;;;2.33;;
3278;SDS011;1651;50.940;6.888;2022-11-15T07:24:00;2.60;;;2.40;;
3278;SDS011;1651;50.940;6.888;2022-11-15T07:26:25;4.07;;;2.40;;
3278;SDS011;1651;50.940;6.888;2022-11-15T07:28:51;5.33;;;2.83;;
3278;SDS011;1651;50.940;6.888;2022-11-15T07:31:17;3.30;;;2.70;;
3278;SDS011;1651;50.940;6.888;2022-11-15T07:33:43;4.90;;;2.70;;
3278;SDS011;1651;50.940;6.888;2022-11-15T07:36:09;2.37;;;2.13;;
3278;SDS011;1651;50.940;6.888;2022-11-15T07:38:35;4.50;;;2.20;;
3278;SDS011;1651;50.940;6.888;2022-11-15T07:41:03;2.47;;;2.00;;
3278;SDS011;1651;50.940;6.888;2022-11-15T07:43:30;2.97;;;1.83;;
3278;SDS011;1651;50.940;6.888;2022-11-15T07:46:04;2.20;;;1.93;;
3278;SDS011;1651;50.940;6.888;2022-11-15T07:48:30;2.70;;;1.60;;
3278;SDS011;1651;50.940;6.888;2022-11-15T07:50:56;2.90;;;1.73;;
3278;SDS011;1651;50.940;6.888;2022-11-15T07:53:22;2.33;;;1.80;;
3278;SDS011;1651;50.940;6.888;2022-11-15T07:55:48;2.33;;;2.13;;
3278;SDS011;1651;50.940;6.888;2022-11-15T07:58:14;6.30;;;2.10;;
3278;SDS011;1651;50.940;6.888;2022-11-15T08:00:40;3.63;;;1.93;;
3278;SDS011;1651;50.940;6.888;2022-11-15T08:03:10;3.03;;;1.70;;
3278;SDS011;1651;50.940;6.888;2022-11-15T08:05:37;3.20;;;2.20;;
3278;SDS011;1651;50.940;6.888;2022-11-15T08:08:04;2.50;;;1.93;;
3278;SDS011;1651;50.940;6.888;2022-11-15T08:10:31;4.33;;;1.77;;
3278;SDS011;1651;50.940;6.888;2022-11-15T08:13:00;2.73;;;1.87;;
3278;SDS011;1651;50.940;6.888;2022-11-15T08:15:31;2.10;;;1.90;;
3278;SDS011;1651;50.940;6.888;2022-11-15T08:17:59;2.60;;;1.90;;
3278;SDS011;1651;50.940;6.888;2022-11-15T08:20:26;1.87;;;1.67;;
3278;SDS011;1651;50.940;6.888;2022-11-15T08:22:55;1.60;;;1.50;;
3278;SDS011;1651;50.940;6.888;2022-11-15T08:25:21;1.97;;;1.43;;
3278;SDS011;1651;50.940;6.888;2022-11-15T08:27:53;1.60;;;1.50;;
3278;SDS011;1651;50.940;6.888;2022-11-15T08:30:19;1.97;;;1.57;;
3278;SDS011;1651;50.940;6.888;2022-11-15T08:32:47;4.90;;;1.80;;
3278;SDS011;1651;50.940;6.888;2022-11-15T08:35:14;1.67;;;1.57;;
3278;SDS011;1651;50.940;6.888;2022-11-15T08:37:41;3.10;;;1.40;;
3278;SDS011;1651;50.940;6.888;2022-11-15T08:40:07;2.57;;;1.53;;
3278;SDS011;1651;50.940;6.888;2022-11-15T08:42:34;3.03;;;2.30;;
3278;SDS011;1651;50.940;6.888;2022-11-15T08:45:01;4.07;;;1.60;;
3278;SDS011;1651;50.940;6.888;2022-11-15T08:47:27;2.57;;;1.70;;
3278;SDS011;1651;50.940;6.888;2022-11-15T08:49:53;1.70;;;1.50;;
3278;SDS011;1651;50.940;6.888;2022-11-15T08:52:19;4.83;;;1.93;;
3278;SDS011;1651;50.940;6.888;2022-11-15T08:54:46;4.67;;;1.83;;
3278;SDS011;1651;50.940;6.888;2022-11-15T08:57:13;2.80;;;1.77;;
3278;SDS011;1651;50.940;6.888;2022-11-15T08:59:39;4.70;;;1.60;;
3278;SDS011;1651;50.940;6.888;2022-11-15T09:02:05;4.07;;;1.77;;
3278;SDS011;1651;50.940;6.888;2022-11-15T09:04:32;2.03;;;1.70;;
3278;SDS011;1651;50.940;6.888;2022-11-15T09:06:58;2.87;;;2.10;;
3278;SDS011;1651;50.940;6.888;2022-11-15T09:09:24;3.50;;;2.00;;
3278;SDS011;1651;50.940;6.888;2022-11-15T09:11:50;2.60;;;1.63;;
3278;SDS011;1651;50.940;6.888;2022-11-15T09:14:16;2.37;;;1.60;;
3278;SDS011;1651;50.940;6.888;2022-11-15T09:16:44;3.33;;;1.60;;
3278;SDS011;1651;50.940;6.888;2022-11-15T09:19:11;2.20;;;1.70;;
3278;SDS011;1651;50.940;6.888;2022-11-15T09:21:37;4.50;;;1.47;;
3278;SDS011;1651;50.940;6.888;2022-11-15T09:24:02;1.87;;;1.37;;
3278;SDS011;1651;50.940;6.888;2022-11-15T09:26:29;2.10;;;1.47;;
3278;SDS011;1651;50.940;6.888;2022-11-15T09:28:55;1.60;;;1.50;;
3278;SDS011;1651;50.940;6.888;2022-11-15T09:31:22;3.60;;;1.90;;
3278;SDS011;1651;50.940;6.888;2022-11-15T09:33:49;1.83;;;1.50;;
3278;SDS011;1651;50.940;6.888;2022-11-15T09:36:15;1.73;;;1.60;;
3278;SDS011;1651;50.940;6.888;2022-11-15T09:38:41;3.77;;;1.47;;
3278;SDS011;1651;50.940;6.888;2022-11-15T09:48:56;2.83;;;1.37;;
3278;SDS011;1651;50.940;6.888;2022-11-15T09:51:30;1.57;;;1.27;;
3278;SDS011;1651;50.940;6.888;2022-11-15T09:54:05;3.13;;;1.47;;
3278;SDS011;1651;50.940;6.888;2022-11-15T09:56:36;2.90;;;1.60;;
3278;SDS011;1651;50.940;6.888;2022-11-15T10:01:41;2.37;;;1.60;;
3278;SDS011;1651;50.940;6.888;2022-11-15T10:04:10;2.80;;;1.50;;
3278;SDS011;1651;50.940;6.888;2022-11-15T10:06:38;3.00;;;1.27;;
3278;SDS011;1651;50.940;6.888;2022-11-15T10:09:06;1.70;;;1.43;;
3278;SDS011;1651;50.940;6.888;2022-11-15T10:11:34;1.40;;;1.30;;
3278;SDS011;1651;50.940;6.888;2022-11-15T10:14:24;1.40;;;1.13;;
3278;SDS011;1651;50.940;6.888;2022-11-15T10:24:15;2.23;;;1.10;;
3278;SDS011;1651;50.940;6.888;2022-11-15T10:26:47;2.10;;;1.10;;
3278;SDS011;1651;50.940;6.888;2022-11-15T10:29:20;1.20;;;0.93;;
3278;SDS011;1651;50.940;6.888;2022-11-15T10:31:46;3.73;;;1.33;;
3278;SDS011;1651;50.940;6.888;2022-11-15T10:34:14;2.10;;;1.10;;
3278;SDS011;1651;50.940;6.888;2022-11-15T10:36:44;2.03;;;0.97;;
3278;SDS011;1651;50.940;6.888;2022-11-15T10:39:13;1.50;;;1.10;;
3278;SDS011;1651;50.940;6.888;2022-11-15T10:41:40;3.10;;;1.10;;
3278;SDS011;1651;50.940;6.888;2022-11-15T10:46:37;2.30;;;0.90;;
3278;SDS011;1651;50.940;6.888;2022-11-15T10:49:14;1.63;;;0.97;;
3278;SDS011;1651;50.940;6.888;2022-11-15T10:51:41;1.17;;;0.90;;
3278;SDS011;1651;50.940;6.888;2022-11-15T10:54:10;3.37;;;1.20;;
3278;SDS011;1651;50.940;6.888;2022-11-15T10:56:40;4.17;;;1.20;;
3278;SDS011;1651;50.940;6.888;2022-11-15T10:59:07;1.40;;;1.10;;
3278;SDS011;1651;50.940;6.888;2022-11-15T11:01:45;4.30;;;0.90;;
3278;SDS011;1651;50.940;6.888;2022-11-15T11:04:11;2.60;;;1.00;;
3278;SDS011;1651;50.940;6.888;2022-11-15T11:12:00;1.77;;;0.70;;
3278;SDS011;1651;50.940;6.888;2022-11-15T11:14:31;1.10;;;0.80;;
3278;SDS011;1651;50.940;6.888;2022-11-15T11:19:54;1.23;;;0.97;;
3278;SDS011;1651;50.940;6.888;2022-11-15T11:30:33;1.30;;;0.63;;
3278;SDS011;1651;50.940;6.888;2022-11-15T11:33:20;1.47;;;0.87;;
3278;SDS011;1651;50.940;6.888;2022-11-15T11:52:00;2.17;;;1.10;;
3278;SDS011;1651;50.940;6.888;2022-11-15T11:54:32;1.00;;;0.80;;
3278;SDS011;1651;50.940;6.888;2022-11-15T11:57:03;4.07;;;1.20;;
3278;SDS011;1651;50.940;6.888;2022-11-15T11:59:50;4.07;;;1.30;;
3278;SDS011;1651;50.940;6.888;2022-11-15T12:02:26;1.13;;;0.87;;
3278;SDS011;1651;50.940;6.888;2022-11-15T12:04:56;2.07;;;1.10;;
3278;SDS011;1651;50.940;6.888;2022-11-15T12:07:35;2.37;;;1.23;;
3278;SDS011;1651;50.940;6.888;2022-11-15T12:10:04;1.93;;;1.10;;
3278;SDS011;1651;50.940;6.888;2022-11-15T12:12:46;2.43;;;1.20;;
3278;SDS011;1651;50.940;6.888;2022-11-15T12:15:29;3.47;;;1.03;;
3278;SDS011;1651;50.940;6.888;2022-11-15T12:17:57;5.77;;;1.37;;
3278;SDS011;1651;50.940;6.888;2022-11-15T12:20:30;1.80;;;1.10;;
3278;SDS011;1651;50.940;6.888;2022-11-15T12:23:00;2.90;;;1.10;;
3278;SDS011;1651;50.940;6.888;2022-11-15T12:25:31;0.73;;;0.60;;
3278;SDS011;1651;50.940;6.888;2022-11-15T12:30:43;2.87;;;0.93;;
3278;SDS011;1651;50.940;6.888;2022-11-15T12:35:59;1.83;;;1.20;;
3278;SDS011;1651;50.940;6.888;2022-11-15T12:41:16;2.67;;;0.83;;
3278;SDS011;1651;50.940;6.888;2022-11-15T12:43:44;2.13;;;1.10;;
3278;SDS011;1651;50.940;6.888;2022-11-15T12:51:07;3.10;;;1.00;;
3278;SDS011;1651;50.940;6.888;2022-11-15T12:53:33;2.20;;;0.97;;
3278;SDS011;1651;50.940;6.888;2022-11-15T12:58:48;5.90;;;1.57;;
3278;SDS011;1651;50.940;6.888;2022-11-15T13:06:48;2.60;;;1.40;;
3278;SDS011;1651;50.940;6.888;2022-11-15T13:09:57;3.00;;;1.40;;
3278;SDS011;1651;50.940;6.888;2022-11-15T13:12:09;2.40;;;1.43;;
3278;SDS011;1651;50.940;6.888;2022-11-15T13:20:23;2.80;;;1.47;;
3278;SDS011;1651;50.940;6.888;2022-11-15T13:30:50;2.70;;;1.77;;
3278;SDS011;1651;50.940;6.888;2022-11-15T13:33:18;2.60;;;2.00;;
3278;SDS011;1651;50.940;6.888;2022-11-15T13:35:46;3.37;;;1.80;;
3278;SDS011;1651;50.940;6.888;2022-11-15T13:38:19;2.53;;;2.17;;
3278;SDS011;1651;50.940;6.888;2022-11-15T13:40:55;2.50;;;1.70;;
3278;SDS011;1651;50.940;6.888;2022-11-15T13:46:09;2.80;;;1.70;;
3278;SDS011;1651;50.940;6.888;2022-11-15T13:48:36;2.53;;;1.90;;
3278;SDS011;1651;50.940;6.888;2022-11-15T13:51:03;3.30;;;2.13;;
3278;SDS011;1651;50.940;6.888;2022-11-15T13:56:48;1.83;;;1.33;;
3278;SDS011;1651;50.940;6.888;2022-11-15T13:59:29;5.60;;;2.50;;
3278;SDS011;1651;50.940;6.888;2022-11-15T14:08:38;2.80;;;2.00;;
3278;SDS011;1651;50.940;6.888;2022-11-15T14:16:45;3.80;;;2.30;;
3278;SDS011;1651;50.940;6.888;2022-11-15T14:19:12;3.00;;;1.50;;
3278;SDS011;1651;50.940;6.888;2022-11-15T14:22:08;5.23;;;2.13;;
3278;SDS011;1651;50.940;6.888;2022-11-15T14:24:35;2.37;;;2.17;;
3278;SDS011;1651;50.940;6.888;2022-11-15T14:29:49;3.10;;;2.30;;
3278;SDS011;1651;50.940;6.888;2022-11-15T14:32:19;2.33;;;2.10;;
3278;SDS011;1651;50.940;6.888;2022-11-15T14:34:47;2.93;;;2.50;;
3278;SDS011;1651;50.940;6.888;2022-11-15T14:37:21;3.20;;;2.40;;
3278;SDS011;1651;50.940;6.888;2022-11-15T14:39:48;5.93;;;2.67;;
3278;SDS011;1651;50.940;6.888;2022-11-15T14:42:15;3.30;;;2.93;;
3278;SDS011;1651;50.940;6.888;2022-11-15T14:44:42;4.17;;;2.50;;
3278;SDS011;1651;50.940;6.888;2022-11-15T14:47:09;4.83;;;2.27;;
3278;SDS011;1651;50.940;6.888;2022-11-15T14:49:35;3.03;;;2.37;;
3278;SDS011;1651;50.940;6.888;2022-11-15T14:52:02;3.27;;;2.30;;
3278;SDS011;1651;50.940;6.888;2022-11-15T14:54:30;4.47;;;2.60;;
3278;SDS011;1651;50.940;6.888;2022-11-15T14:56:56;4.00;;;2.73;;
3278;SDS011;1651;50.940;6.888;2022-11-15T14:59:22;2.20;;;1.97;;
3278;SDS011;1651;50.940;6.888;2022-11-15T15:01:49;8.30;;;2.30;;
3278;SDS011;1651;50.940;6.888;2022-11-15T15:04:15;2.30;;;1.90;;
3278;SDS011;1651;50.940;6.888;2022-11-15T15:06:42;2.13;;;1.70;;
3278;SDS011;1651;50.940;6.888;2022-11-15T15:09:11;5.37;;;2.23;;
3278;SDS011;1651;50.940;6.888;2022-11-15T15:11:37;2.13;;;1.97;;
3278;SDS011;1651;50.940;6.888;2022-11-15T15:14:03;5.50;;;2.30;;
3278;SDS011;1651;50.940;6.888;2022-11-15T15:16:29;2.10;;;1.87;;
3278;SDS011;1651;50.940;6.888;2022-11-15T15:18:55;1.87;;;1.67;;
3278;SDS011;1651;50.940;6.888;2022-11-15T15:21:22;2.60;;;1.90;;
3278;SDS011;1651;50.940;6.888;2022-11-15T15:23:51;2.23;;;1.80;;
3278;SDS011;1651;50.940;6.888;2022-11-15T15:26:21;1.97;;;1.80;;
3278;SDS011;1651;50.940;6.888;2022-11-15T15:28:47;2.70;;;1.80;;
3278;SDS011;1651;50.940;6.888;2022-11-15T15:31:14;2.50;;;1.70;;
3278;SDS011;1651;50.940;6.888;2022-11-15T15:33:41;3.33;;;1.87;;
3278;SDS011;1651;50.940;6.888;2022-11-15T15:36:10;4.60;;;2.00;;
3278;SDS011;1651;50.940;6.888;2022-11-15T15:38:38;1.80;;;1.60;;
3278;SDS011;1651;50.940;6.888;2022-11-15T15:41:12;1.60;;;1.20;;
3278;SDS011;1651;50.940;6.888;2022-11-15T15:43:39;1.93;;;1.83;;
3278;SDS011;1651;50.940;6.888;2022-11-15T15:46:08;2.27;;;1.67;;
3278;SDS011;1651;50.940;6.888;2022-11-15T15:48:42;2.40;;;1.70;;
3278;SDS011;1651;50.940;6.888;2022-11-15T15:51:11;1.90;;;1.20;;
3278;SDS011;1651;50.940;6.888;2022-11-15T15:53:37;2.00;;;1.50;;
3278;SDS011;1651;50.940;6.888;2022-11-15T15:56:04;1.70;;;1.30;;
3278;SDS011;1651;50.940;6.888;2022-11-15T15:58:34;1.90;;;1.70;;
3278;SDS011;1651;50.940;6.888;2022-11-15T16:01:00;3.33;;;2.33;;
3278;SDS011;1651;50.940;6.888;2022-11-15T16:03:26;1.83;;;1.40;;
3278;SDS011;1651;50.940;6.888;2022-11-15T16:05:52;3.87;;;1.97;;
3278;SDS011;1651;50.940;6.888;2022-11-15T16:08:19;3.23;;;2.27;;
3278;SDS011;1651;50.940;6.888;2022-11-15T16:10:46;2.23;;;2.03;;
3278;SDS011;1651;50.940;6.888;2022-11-15T16:13:12;3.23;;;2.50;;
3278;SDS011;1651;50.940;6.888;2022-11-15T16:15:38;1.87;;;1.77;;
3278;SDS011;1651;50.940;6.888;2022-11-15T16:18:04;3.57;;;1.97;;
3278;SDS011;1651;50.940;6.888;2022-11-15T16:23:10;3.60;;;2.20;;
3278;SDS011;1651;50.940;6.888;2022-11-15T16:25:38;4.00;;;2.30;;
3278;SDS011;1651;50.940;6.888;2022-11-15T16:28:11;2.53;;;2.33;;
3278;SDS011;1651;50.940;6.888;2022-11-15T16:30:40;2.40;;;2.00;;
3278;SDS011;1651;50.940;6.888;2022-11-15T16:33:06;2.90;;;1.80;;
3278;SDS011;1651;50.940;6.888;2022-11-15T16:35:32;3.90;;;2.70;;
3278;SDS011;1651;50.940;6.888;2022-11-15T16:37:59;2.50;;;1.87;;
3278;SDS011;1651;50.940;6.888;2022-11-15T16:40:29;2.90;;;2.10;;
3278;SDS011;1651;50.940;6.888;2022-11-15T16:42:56;2.47;;;2.27;;
3278;SDS011;1651;50.940;6.888;2022-11-15T16:45:22;2.53;;;2.23;;
3278;SDS011;1651;50.940;6.888;2022-11-15T16:47:49;3.17;;;2.17;;
3278;SDS011;1651;50.940;6.888;2022-11-15T16:50:21;3.50;;;2.20;;
3278;SDS011;1651;50.940;6.888;2022-11-15T16:52:53;4.87;;;2.57;;
3278;SDS011;1651;50.940;6.888;2022-11-15T16:55:20;2.17;;;1.97;;
3278;SDS011;1651;50.940;6.888;2022-11-15T16:57:47;2.83;;;2.23;;
3278;SDS011;1651;50.940;6.888;2022-11-15T17:00:13;1.97;;;1.77;;
3278;SDS011;1651;50.940;6.888;2022-11-15T17:02:44;2.20;;;1.50;;
3278;SDS011;1651;50.940;6.888;2022-11-15T17:05:10;2.97;;;2.10;;
3278;SDS011;1651;50.940;6.888;2022-11-15T17:07:37;3.93;;;2.53;;
3278;SDS011;1651;50.940;6.888;2022-11-15T17:10:03;3.00;;;2.23;;
3278;SDS011;1651;50.940;6.888;2022-11-15T17:12:33;2.77;;;1.83;;
3278;SDS011;1651;50.940;6.888;2022-11-15T17:14:59;4.07;;;2.37;;
3278;SDS011;1651;50.940;6.888;2022-11-15T17:17:25;4.73;;;2.33;;
3278;SDS011;1651;50.940;6.888;2022-11-15T17:19:51;2.80;;;2.07;;
3278;SDS011;1651;50.940;6.888;2022-11-15T17:22:17;2.97;;;2.20;;
3278;SDS011;1651;50.940;6.888;2022-11-15T17:24:43;4.40;;;3.30;;
3278;SDS011;1651;50.940;6.888;2022-11-15T17:27:10;3.00;;;2.67;;
3278;SDS011;1651;50.940;6.888;2022-11-15T17:29:36;3.10;;;2.80;;
3278;SDS011;1651;50.940;6.888;2022-11-15T17:32:02;4.30;;;3.10;;
3278;SDS011;1651;50.940;6.888;2022-11-15T17:34:28;2.57;;;2.37;;
3278;SDS011;1651;50.940;6.888;2022-11-15T17:36:54;6.03;;;3.20;;
3278;SDS011;1651;50.940;6.888;2022-11-15T17:39:20;3.27;;;2.60;;
3278;SDS011;1651;50.940;6.888;2022-11-15T17:41:47;3.20;;;2.60;;
3278;SDS011;1651;50.940;6.888;2022-11-15T17:44:14;4.40;;;2.30;;
3278;SDS011;1651;50.940;6.888;2022-11-15T17:46:40;5.17;;;2.90;;
3278;SDS011;1651;50.940;6.888;2022-11-15T17:49:06;3.80;;;2.73;;
3278;SDS011;1651;50.940;6.888;2022-11-15T17:51:32;3.60;;;3.03;;
3278;SDS011;1651;50.940;6.888;2022-11-15T17:53:58;3.07;;;2.53;;